Strona główna
METAR-TAF:

METAR-TAF

Lotnisko :

Makkovik, Nowa Fundlandia i Labrador, Kanada

Szerokość geograficzna: 55-05N, Długość geograficzna: 059-11W, wysokość: 71 m

Aktualna obserwacja pogody

Raport powstał 6 godziny i 37 minut temu, godzina 20:00 UTC
Wiatr 13 kt od północno-północny zachód
Temperatura -7°C
Wilgotność 73%
Ciśnienie 1033 hPa
Widzialność: 11.3 km
Zachmurzenie całkowite na wysokości 2500 ft
słaby śnieg

METAR: CYFT 032000Z 33013KT 7SM -SN OVC025 M07/M11 A3050 RMK SC8 LAST STFD OBS/NEXT 040900Z SLP335

czas: 23:37 (02:37 UTC)


TAF: brakujący

Obserwacja i prognoza pogody dla ponad 4000 lotnisk (raport METAR i TAF).

Dostępne stacje oznaczono żółtymi i czerwonymi punktami na mapie.

Najedź kursorem aby zobaczyć nazwę stacji.

Kliknij aby zobaczyć obserwacje i prognozy pogody.

Aby zmienić mapę: kliknij na zielony przycisk z czarnym krzyżykiem, aby powiększyć; na zielony przycisk z myślnikiem, aby pomniejszyć; na zielone strzałki, aby przejść do map sąsiednich.


METAR-TAF: